sensor_id;sensor_type;location;lat;lon;timestamp;temperature;humidity
33109;HTU21D;19481;51.118;6.940;2024-01-15T00:00:01;1.61;74.58
33109;HTU21D;19481;51.118;6.940;2024-01-15T00:05:05;1.51;75.57
33109;HTU21D;19481;51.118;6.940;2024-01-15T00:10:07;1.37;76.41
33109;HTU21D;19481;51.118;6.940;2024-01-15T00:15:09;1.34;76.76
33109;HTU21D;19481;51.118;6.940;2024-01-15T00:20:12;1.33;76.63
33109;HTU21D;19481;51.118;6.940;2024-01-15T00:25:14;1.26;77.66
33109;HTU21D;19481;51.118;6.940;2024-01-15T00:30:15;1.21;77.87
33109;HTU21D;19481;51.118;6.940;2024-01-15T00:35:18;1.17;78.22
33109;HTU21D;19481;51.118;6.940;2024-01-15T00:40:20;1.18;78.42
33109;HTU21D;19481;51.118;6.940;2024-01-15T00:45:22;1.19;78.23
33109;HTU21D;19481;51.118;6.940;2024-01-15T00:50:24;1.22;78.27
33109;HTU21D;19481;51.118;6.940;2024-01-15T00:55:28;1.23;78.32
33109;HTU21D;19481;51.118;6.940;2024-01-15T01:00:30;1.23;78.33
33109;HTU21D;19481;51.118;6.940;2024-01-15T01:05:33;1.24;78.27
33109;HTU21D;19481;51.118;6.940;2024-01-15T01:10:34;1.26;78.14
33109;HTU21D;19481;51.118;6.940;2024-01-15T01:15:36;1.29;77.91
33109;HTU21D;19481;51.118;6.940;2024-01-15T01:20:40;1.28;77.66
33109;HTU21D;19481;51.118;6.940;2024-01-15T01:25:41;1.35;77.54
33109;HTU21D;19481;51.118;6.940;2024-01-15T01:30:43;1.38;77.79
33109;HTU21D;19481;51.118;6.940;2024-01-15T01:35:46;1.40;77.60
33109;HTU21D;19481;51.118;6.940;2024-01-15T01:40:48;1.41;77.63
33109;HTU21D;19481;51.118;6.940;2024-01-15T01:45:49;1.46;77.64
33109;HTU21D;19481;51.118;6.940;2024-01-15T01:50:53;1.48;77.47
33109;HTU21D;19481;51.118;6.940;2024-01-15T01:55:56;1.49;77.20
33109;HTU21D;19481;51.118;6.940;2024-01-15T02:00:59;1.51;77.41
33109;HTU21D;19481;51.118;6.940;2024-01-15T02:06:02;1.54;77.05
33109;HTU21D;19481;51.118;6.940;2024-01-15T02:11:04;1.57;77.30
33109;HTU21D;19481;51.118;6.940;2024-01-15T02:16:05;1.58;77.27
33109;HTU21D;19481;51.118;6.940;2024-01-15T02:21:09;1.58;77.33
33109;HTU21D;19481;51.118;6.940;2024-01-15T02:26:12;1.63;77.53
33109;HTU21D;19481;51.118;6.940;2024-01-15T02:31:14;1.66;77.27
33109;HTU21D;19481;51.118;6.940;2024-01-15T02:36:16;1.67;76.97
33109;HTU21D;19481;51.118;6.940;2024-01-15T02:41:19;1.67;76.93
33109;HTU21D;19481;51.118;6.940;2024-01-15T02:46:20;1.70;76.76
33109;HTU21D;19481;51.118;6.940;2024-01-15T02:51:22;1.75;76.79
33109;HTU21D;19481;51.118;6.940;2024-01-15T02:56:25;1.77;76.84
33109;HTU21D;19481;51.118;6.940;2024-01-15T03:01:27;1.76;76.65
33109;HTU21D;19481;51.118;6.940;2024-01-15T03:06:28;1.76;76.52
33109;HTU21D;19481;51.118;6.940;2024-01-15T03:11:37;1.79;76.53
33109;HTU21D;19481;51.118;6.940;2024-01-15T03:16:38;1.79;76.34
33109;HTU21D;19481;51.118;6.940;2024-01-15T03:21:40;1.83;76.47
33109;HTU21D;19481;51.118;6.940;2024-01-15T03:26:43;1.80;76.18
33109;HTU21D;19481;51.118;6.940;2024-01-15T03:31:44;1.77;76.17
33109;HTU21D;19481;51.118;6.940;2024-01-15T03:36:46;1.81;76.43
33109;HTU21D;19481;51.118;6.940;2024-01-15T03:41:49;1.84;75.83
33109;HTU21D;19481;51.118;6.940;2024-01-15T03:46:50;1.81;76.29
33109;HTU21D;19481;51.118;6.940;2024-01-15T03:51:52;1.85;76.00
33109;HTU21D;19481;51.118;6.940;2024-01-15T03:56:55;1.87;75.62
33109;HTU21D;19481;51.118;6.940;2024-01-15T04:01:56;1.86;75.85
33109;HTU21D;19481;51.118;6.940;2024-01-15T04:06:58;1.81;76.07
33109;HTU21D;19481;51.118;6.940;2024-01-15T04:12:01;1.81;76.42
33109;HTU21D;19481;51.118;6.940;2024-01-15T04:17:03;1.79;76.33
33109;HTU21D;19481;51.118;6.940;2024-01-15T04:22:04;1.81;76.12
33109;HTU21D;19481;51.118;6.940;2024-01-15T04:27:08;1.85;75.96
33109;HTU21D;19481;51.118;6.940;2024-01-15T04:32:09;1.85;76.10
33109;HTU21D;19481;51.118;6.940;2024-01-15T04:37:11;1.86;75.99
33109;HTU21D;19481;51.118;6.940;2024-01-15T04:42:14;1.88;75.70
33109;HTU21D;19481;51.118;6.940;2024-01-15T04:47:16;1.93;75.55
33109;HTU21D;19481;51.118;6.940;2024-01-15T04:52:17;1.88;75.52
33109;HTU21D;19481;51.118;6.940;2024-01-15T04:57:20;1.92;75.33
33109;HTU21D;19481;51.118;6.940;2024-01-15T05:02:22;1.97;75.36
33109;HTU21D;19481;51.118;6.940;2024-01-15T05:07:23;1.97;75.25
33109;HTU21D;19481;51.118;6.940;2024-01-15T05:12:26;1.99;74.96
33109;HTU21D;19481;51.118;6.940;2024-01-15T05:17:28;2.02;75.27
33109;HTU21D;19481;51.118;6.940;2024-01-15T05:22:29;2.02;75.19
33109;HTU21D;19481;51.118;6.940;2024-01-15T05:27:32;2.00;75.05
33109;HTU21D;19481;51.118;6.940;2024-01-15T05:32:34;2.02;75.21
33109;HTU21D;19481;51.118;6.940;2024-01-15T05:37:35;2.06;74.94
33109;HTU21D;19481;51.118;6.940;2024-01-15T05:42:38;2.10;74.90
33109;HTU21D;19481;51.118;6.940;2024-01-15T05:47:40;2.08;74.76
33109;HTU21D;19481;51.118;6.940;2024-01-15T05:52:42;2.08;75.08
33109;HTU21D;19481;51.118;6.940;2024-01-15T05:57:45;2.08;74.83
33109;HTU21D;19481;51.118;6.940;2024-01-15T06:02:46;2.06;75.12
33109;HTU21D;19481;51.118;6.940;2024-01-15T06:07:48;2.07;74.83
33109;HTU21D;19481;51.118;6.940;2024-01-15T06:12:51;2.06;74.80
33109;HTU21D;19481;51.118;6.940;2024-01-15T06:17:52;2.08;75.01
33109;HTU21D;19481;51.118;6.940;2024-01-15T06:22:54;2.08;75.21
33109;HTU21D;19481;51.118;6.940;2024-01-15T06:27:57;2.12;75.25
33109;HTU21D;19481;51.118;6.940;2024-01-15T06:32:58;2.11;75.11
33109;HTU21D;19481;51.118;6.940;2024-01-15T06:38:00;2.11;75.06
33109;HTU21D;19481;51.118;6.940;2024-01-15T06:43:03;2.16;74.83
33109;HTU21D;19481;51.118;6.940;2024-01-15T06:48:06;2.17;74.64
33109;HTU21D;19481;51.118;6.940;2024-01-15T06:53:07;2.16;74.81
33109;HTU21D;19481;51.118;6.940;2024-01-15T06:58:10;2.10;74.97
33109;HTU21D;19481;51.118;6.940;2024-01-15T07:03:12;2.10;75.21
33109;HTU21D;19481;51.118;6.940;2024-01-15T07:08:13;2.07;75.83
33109;HTU21D;19481;51.118;6.940;2024-01-15T07:13:16;2.05;75.79
33109;HTU21D;19481;51.118;6.940;2024-01-15T07:18:18;1.98;75.66
33109;HTU21D;19481;51.118;6.940;2024-01-15T07:23:20;2.00;76.76
33109;HTU21D;19481;51.118;6.940;2024-01-15T07:28:23;1.99;76.46
33109;HTU21D;19481;51.118;6.940;2024-01-15T07:33:24;2.01;76.33
33109;HTU21D;19481;51.118;6.940;2024-01-15T07:38:26;2.05;76.09
33109;HTU21D;19481;51.118;6.940;2024-01-15T07:43:30;2.06;76.01
33109;HTU21D;19481;51.118;6.940;2024-01-15T07:48:31;2.07;75.92
33109;HTU21D;19481;51.118;6.940;2024-01-15T07:53:33;2.12;75.59
33109;HTU21D;19481;51.118;6.940;2024-01-15T07:58:36;2.16;75.23
33109;HTU21D;19481;51.118;6.940;2024-01-15T08:03:37;2.16;75.04
33109;HTU21D;19481;51.118;6.940;2024-01-15T08:08:39;2.14;75.21
33109;HTU21D;19481;51.118;6.940;2024-01-15T08:13:42;2.15;75.02
33109;HTU21D;19481;51.118;6.940;2024-01-15T08:18:43;2.19;75.11
33109;HTU21D;19481;51.118;6.940;2024-01-15T08:23:45;2.17;75.03
33109;HTU21D;19481;51.118;6.940;2024-01-15T08:28:48;2.20;74.75
33109;HTU21D;19481;51.118;6.940;2024-01-15T08:33:50;2.13;75.03
33109;HTU21D;19481;51.118;6.940;2024-01-15T08:38:51;2.05;75.67
33109;HTU21D;19481;51.118;6.940;2024-01-15T08:43:54;1.96;75.97
33109;HTU21D;19481;51.118;6.940;2024-01-15T08:48:56;1.85;76.82
33109;HTU21D;19481;51.118;6.940;2024-01-15T08:53:57;1.77;76.60
33109;HTU21D;19481;51.118;6.940;2024-01-15T08:59:00;1.64;77.21
33109;HTU21D;19481;51.118;6.940;2024-01-15T09:04:02;1.55;76.97
33109;HTU21D;19481;51.118;6.940;2024-01-15T09:09:03;1.49;77.40
33109;HTU21D;19481;51.118;6.940;2024-01-15T09:14:08;1.49;77.62
33109;HTU21D;19481;51.118;6.940;2024-01-15T09:19:09;1.43;77.69
33109;HTU21D;19481;51.118;6.940;2024-01-15T09:24:11;1.40;77.95
33109;HTU21D;19481;51.118;6.940;2024-01-15T09:29:14;1.39;78.00
33109;HTU21D;19481;51.118;6.940;2024-01-15T09:34:16;1.41;78.27
33109;HTU21D;19481;51.118;6.940;2024-01-15T09:39:18;1.42;78.41
33109;HTU21D;19481;51.118;6.940;2024-01-15T09:44:21;1.50;78.69
33109;HTU21D;19481;51.118;6.940;2024-01-15T09:49:23;1.54;78.87
33109;HTU21D;19481;51.118;6.940;2024-01-15T09:54:25;1.57;78.96
33109;HTU21D;19481;51.118;6.940;2024-01-15T09:59:28;1.60;78.73
33109;HTU21D;19481;51.118;6.940;2024-01-15T10:04:31;1.60;78.68
33109;HTU21D;19481;51.118;6.940;2024-01-15T10:09:32;1.60;78.85
33109;HTU21D;19481;51.118;6.940;2024-01-15T10:14:35;1.58;78.61
33109;HTU21D;19481;51.118;6.940;2024-01-15T10:19:37;1.62;78.57
33109;HTU21D;19481;51.118;6.940;2024-01-15T10:24:40;1.69;78.51
33109;HTU21D;19481;51.118;6.940;2024-01-15T10:29:43;1.70;78.13
33109;HTU21D;19481;51.118;6.940;2024-01-15T10:34:45;1.71;77.90
33109;HTU21D;19481;51.118;6.940;2024-01-15T10:39:47;1.70;78.16
33109;HTU21D;19481;51.118;6.940;2024-01-15T10:44:50;1.64;78.17
33109;HTU21D;19481;51.118;6.940;2024-01-15T10:49:52;1.69;77.93
33109;HTU21D;19481;51.118;6.940;2024-01-15T10:54:54;1.66;77.85
33109;HTU21D;19481;51.118;6.940;2024-01-15T10:59:57;1.75;77.63
33109;HTU21D;19481;51.118;6.940;2024-01-15T11:04:59;1.80;77.74
33109;HTU21D;19481;51.118;6.940;2024-01-15T11:10:03;1.84;77.77
33109;HTU21D;19481;51.118;6.940;2024-01-15T11:15:07;1.97;77.60
33109;HTU21D;19481;51.118;6.940;2024-01-15T11:20:09;2.08;77.71
33109;HTU21D;19481;51.118;6.940;2024-01-15T11:25:13;2.06;77.79
33109;HTU21D;19481;51.118;6.940;2024-01-15T11:30:17;2.05;77.33
33109;HTU21D;19481;51.118;6.940;2024-01-15T11:35:20;2.02;77.37
33109;HTU21D;19481;51.118;6.940;2024-01-15T11:40:23;2.07;77.24
33109;HTU21D;19481;51.118;6.940;2024-01-15T11:45:27;2.10;77.11
33109;HTU21D;19481;51.118;6.940;2024-01-15T11:50:30;2.11;76.92
33109;HTU21D;19481;51.118;6.940;2024-01-15T11:55:34;2.17;76.47
33109;HTU21D;19481;51.118;6.940;2024-01-15T12:00:41;2.26;76.15
33109;HTU21D;19481;51.118;6.940;2024-01-15T12:05:43;2.40;75.74
33109;HTU21D;19481;51.118;6.940;2024-01-15T12:10:45;2.47;75.29
33109;HTU21D;19481;51.118;6.940;2024-01-15T12:15:48;2.61;75.12
33109;HTU21D;19481;51.118;6.940;2024-01-15T12:20:54;2.70;75.05
33109;HTU21D;19481;51.118;6.940;2024-01-15T12:25:55;2.66;74.79
33109;HTU21D;19481;51.118;6.940;2024-01-15T12:30:59;2.54;74.49
33109;HTU21D;19481;51.118;6.940;2024-01-15T12:36:06;2.53;74.91
33109;HTU21D;19481;51.118;6.940;2024-01-15T12:41:07;2.54;74.83
33109;HTU21D;19481;51.118;6.940;2024-01-15T12:46:10;2.61;74.22
33109;HTU21D;19481;51.118;6.940;2024-01-15T12:51:12;2.62;74.21
33109;HTU21D;19481;51.118;6.940;2024-01-15T12:56:13;2.65;74.06
33109;HTU21D;19481;51.118;6.940;2024-01-15T13:01:16;2.62;73.89
33109;HTU21D;19481;51.118;6.940;2024-01-15T13:06:18;2.68;73.93
33109;HTU21D;19481;51.118;6.940;2024-01-15T13:11:20;2.65;73.67
33109;HTU21D;19481;51.118;6.940;2024-01-15T13:16:23;2.72;73.55
33109;HTU21D;19481;51.118;6.940;2024-01-15T13:21:27;2.68;73.58
33109;HTU21D;19481;51.118;6.940;2024-01-15T13:26:28;2.67;73.39
33109;HTU21D;19481;51.118;6.940;2024-01-15T13:31:32;2.70;73.47
33109;HTU21D;19481;51.118;6.940;2024-01-15T13:36:33;2.71;73.42
33109;HTU21D;19481;51.118;6.940;2024-01-15T13:41:35;2.64;73.91
33109;HTU21D;19481;51.118;6.940;2024-01-15T13:46:38;2.57;73.82
33109;HTU21D;19481;51.118;6.940;2024-01-15T13:51:40;2.65;73.98
33109;HTU21D;19481;51.118;6.940;2024-01-15T13:56:42;2.57;74.20
33109;HTU21D;19481;51.118;6.940;2024-01-15T14:01:45;2.51;74.47
33109;HTU21D;19481;51.118;6.940;2024-01-15T14:06:47;2.41;74.61
33109;HTU21D;19481;51.118;6.940;2024-01-15T14:11:49;2.38;74.92
33109;HTU21D;19481;51.118;6.940;2024-01-15T14:16:52;2.36;74.97
33109;HTU21D;19481;51.118;6.940;2024-01-15T14:21:53;2.32;75.41
33109;HTU21D;19481;51.118;6.940;2024-01-15T14:26:55;2.39;74.99
33109;HTU21D;19481;51.118;6.940;2024-01-15T14:31:58;2.41;74.47
33109;HTU21D;19481;51.118;6.940;2024-01-15T14:37:00;2.42;74.14
33109;HTU21D;19481;51.118;6.940;2024-01-15T14:42:02;2.47;73.81
33109;HTU21D;19481;51.118;6.940;2024-01-15T14:47:05;2.52;73.90
33109;HTU21D;19481;51.118;6.940;2024-01-15T14:52:08;2.49;73.86
33109;HTU21D;19481;51.118;6.940;2024-01-15T14:57:09;2.46;73.77
33109;HTU21D;19481;51.118;6.940;2024-01-15T15:02:12;2.44;73.61
33109;HTU21D;19481;51.118;6.940;2024-01-15T15:07:15;2.37;73.83
33109;HTU21D;19481;51.118;6.940;2024-01-15T15:12:17;2.36;73.75
33109;HTU21D;19481;51.118;6.940;2024-01-15T15:17:20;2.32;73.96
33109;HTU21D;19481;51.118;6.940;2024-01-15T15:22:22;2.29;74.09
33109;HTU21D;19481;51.118;6.940;2024-01-15T15:27:23;2.27;74.42
33109;HTU21D;19481;51.118;6.940;2024-01-15T15:32:28;2.25;74.43
33109;HTU21D;19481;51.118;6.940;2024-01-15T15:37:29;2.22;74.91
33109;HTU21D;19481;51.118;6.940;2024-01-15T15:42:31;2.10;75.43
33109;HTU21D;19481;51.118;6.940;2024-01-15T15:47:34;1.98;75.71
33109;HTU21D;19481;51.118;6.940;2024-01-15T15:52:36;1.77;76.63
33109;HTU21D;19481;51.118;6.940;2024-01-15T15:57:37;1.64;76.94
33109;HTU21D;19481;51.118;6.940;2024-01-15T16:02:40;1.63;76.66
33109;HTU21D;19481;51.118;6.940;2024-01-15T16:07:42;1.63;76.54
33109;HTU21D;19481;51.118;6.940;2024-01-15T16:12:43;1.60;76.63
33109;HTU21D;19481;51.118;6.940;2024-01-15T16:17:47;1.52;77.61
33109;HTU21D;19481;51.118;6.940;2024-01-15T16:22:49;1.58;77.18
33109;HTU21D;19481;51.118;6.940;2024-01-15T16:27:50;1.65;77.08
33109;HTU21D;19481;51.118;6.940;2024-01-15T16:32:53;1.72;76.57
33109;HTU21D;19481;51.118;6.940;2024-01-15T16:37:55;1.68;76.47
33109;HTU21D;19481;51.118;6.940;2024-01-15T16:42:56;1.67;76.26
33109;HTU21D;19481;51.118;6.940;2024-01-15T16:47:59;1.68;76.21
33109;HTU21D;19481;51.118;6.940;2024-01-15T16:53:01;1.67;76.43
33109;HTU21D;19481;51.118;6.940;2024-01-15T16:58:03;1.67;76.37
33109;HTU21D;19481;51.118;6.940;2024-01-15T17:03:06;1.65;76.39
33109;HTU21D;19481;51.118;6.940;2024-01-15T17:08:08;1.57;76.16
33109;HTU21D;19481;51.118;6.940;2024-01-15T17:13:09;1.43;76.53
33109;HTU21D;19481;51.118;6.940;2024-01-15T17:18:13;1.43;76.57
33109;HTU21D;19481;51.118;6.940;2024-01-15T17:23:14;1.29;76.28
33109;HTU21D;19481;51.118;6.940;2024-01-15T17:28:16;1.20;76.54
33109;HTU21D;19481;51.118;6.940;2024-01-15T17:33:19;1.12;76.42
33109;HTU21D;19481;51.118;6.940;2024-01-15T17:38:21;1.14;76.86
33109;HTU21D;19481;51.118;6.940;2024-01-15T17:43:22;1.18;76.51
33109;HTU21D;19481;51.118;6.940;2024-01-15T17:48:25;1.20;76.44
33109;HTU21D;19481;51.118;6.940;2024-01-15T17:53:27;1.26;76.34
33109;HTU21D;19481;51.118;6.940;2024-01-15T17:58:30;1.33;76.24
33109;HTU21D;19481;51.118;6.940;2024-01-15T18:03:33;1.40;76.02
33109;HTU21D;19481;51.118;6.940;2024-01-15T18:08:35;1.48;75.82
33109;HTU21D;19481;51.118;6.940;2024-01-15T18:13:37;1.51;75.61
33109;HTU21D;19481;51.118;6.940;2024-01-15T18:18:40;1.52;75.59
33109;HTU21D;19481;51.118;6.940;2024-01-15T18:23:42;1.57;75.49
33109;HTU21D;19481;51.118;6.940;2024-01-15T18:28:44;1.56;75.25
33109;HTU21D;19481;51.118;6.940;2024-01-15T18:33:47;1.61;75.08
33109;HTU21D;19481;51.118;6.940;2024-01-15T18:38:49;1.64;75.13
33109;HTU21D;19481;51.118;6.940;2024-01-15T18:43:50;1.65;74.96
33109;HTU21D;19481;51.118;6.940;2024-01-15T18:48:54;1.65;74.62
33109;HTU21D;19481;51.118;6.940;2024-01-15T18:53:56;1.58;74.41
33109;HTU21D;19481;51.118;6.940;2024-01-15T18:58:58;1.58;74.26
33109;HTU21D;19481;51.118;6.940;2024-01-15T19:04:01;1.50;74.18
33109;HTU21D;19481;51.118;6.940;2024-01-15T19:09:02;1.47;74.44
33109;HTU21D;19481;51.118;6.940;2024-01-15T19:14:04;1.49;74.52
33109;HTU21D;19481;51.118;6.940;2024-01-15T19:19:07;1.51;74.60
33109;HTU21D;19481;51.118;6.940;2024-01-15T19:24:09;1.53;74.44
33109;HTU21D;19481;51.118;6.940;2024-01-15T19:29:10;1.57;74.44
33109;HTU21D;19481;51.118;6.940;2024-01-15T19:34:13;1.51;74.39
33109;HTU21D;19481;51.118;6.940;2024-01-15T19:39:15;1.49;74.42
33109;HTU21D;19481;51.118;6.940;2024-01-15T19:44:16;1.48;74.64
33109;HTU21D;19481;51.118;6.940;2024-01-15T19:49:19;1.46;75.00
33109;HTU21D;19481;51.118;6.940;2024-01-15T19:54:21;1.43;74.83
33109;HTU21D;19481;51.118;6.940;2024-01-15T19:59:23;1.42;75.19
33109;HTU21D;19481;51.118;6.940;2024-01-15T20:04:26;1.41;75.21
33109;HTU21D;19481;51.118;6.940;2024-01-15T20:09:27;1.39;74.99
33109;HTU21D;19481;51.118;6.940;2024-01-15T20:14:29;1.31;75.03
33109;HTU21D;19481;51.118;6.940;2024-01-15T20:19:32;1.32;75.04
33109;HTU21D;19481;51.118;6.940;2024-01-15T20:24:34;1.34;75.13
33109;HTU21D;19481;51.118;6.940;2024-01-15T20:29:36;1.38;75.00
33109;HTU21D;19481;51.118;6.940;2024-01-15T20:34:39;1.38;75.50
33109;HTU21D;19481;51.118;6.940;2024-01-15T20:39:40;1.38;75.28
33109;HTU21D;19481;51.118;6.940;2024-01-15T20:44:43;1.27;75.44
33109;HTU21D;19481;51.118;6.940;2024-01-15T20:49:46;1.21;75.31
33109;HTU21D;19481;51.118;6.940;2024-01-15T20:54:48;1.20;75.61
33109;HTU21D;19481;51.118;6.940;2024-01-15T20:59:50;1.21;75.57
33109;HTU21D;19481;51.118;6.940;2024-01-15T21:04:53;1.24;75.82
33109;HTU21D;19481;51.118;6.940;2024-01-15T21:09:54;1.28;75.32
33109;HTU21D;19481;51.118;6.940;2024-01-15T21:14:57;1.31;75.28
33109;HTU21D;19481;51.118;6.940;2024-01-15T21:20:00;1.23;75.12
33109;HTU21D;19481;51.118;6.940;2024-01-15T21:25:02;1.16;75.22
33109;HTU21D;19481;51.118;6.940;2024-01-15T21:30:04;1.22;75.11
33109;HTU21D;19481;51.118;6.940;2024-01-15T21:35:09;1.24;75.05
33109;HTU21D;19481;51.118;6.940;2024-01-15T21:40:10;1.27;75.28
33109;HTU21D;19481;51.118;6.940;2024-01-15T21:45:12;1.33;75.29
33109;HTU21D;19481;51.118;6.940;2024-01-15T21:50:15;1.36;74.97
33109;HTU21D;19481;51.118;6.940;2024-01-15T21:55:17;1.39;75.02
33109;HTU21D;19481;51.118;6.940;2024-01-15T22:00:19;1.41;75.01
33109;HTU21D;19481;51.118;6.940;2024-01-15T22:05:22;1.43;75.30
33109;HTU21D;19481;51.118;6.940;2024-01-15T22:10:24;1.49;75.39
33109;HTU21D;19481;51.118;6.940;2024-01-15T22:15:25;1.52;75.39
33109;HTU21D;19481;51.118;6.940;2024-01-15T22:20:28;1.55;75.41
33109;HTU21D;19481;51.118;6.940;2024-01-15T22:25:30;1.56;75.39
33109;HTU21D;19481;51.118;6.940;2024-01-15T22:30:32;1.57;75.34
33109;HTU21D;19481;51.118;6.940;2024-01-15T22:35:35;1.61;75.15
33109;HTU21D;19481;51.118;6.940;2024-01-15T22:40:37;1.56;75.40
33109;HTU21D;19481;51.118;6.940;2024-01-15T22:45:38;1.61;75.21
33109;HTU21D;19481;51.118;6.940;2024-01-15T22:50:41;1.63;74.96
33109;HTU21D;19481;51.118;6.940;2024-01-15T22:55:43;1.63;74.85
33109;HTU21D;19481;51.118;6.940;2024-01-15T23:00:44;1.65;74.69
33109;HTU21D;19481;51.118;6.940;2024-01-15T23:05:48;1.66;74.70
33109;HTU21D;19481;51.118;6.940;2024-01-15T23:10:49;1.65;74.72
33109;HTU21D;19481;51.118;6.940;2024-01-15T23:15:51;1.64;74.61
33109;HTU21D;19481;51.118;6.940;2024-01-15T23:20:54;1.60;74.70
33109;HTU21D;19481;51.118;6.940;2024-01-15T23:25:56;1.55;75.44
33109;HTU21D;19481;51.118;6.940;2024-01-15T23:30:58;1.60;75.23
33109;HTU21D;19481;51.118;6.940;2024-01-15T23:36:01;1.62;74.80
33109;HTU21D;19481;51.118;6.940;2024-01-15T23:41:03;1.65;74.73
33109;HTU21D;19481;51.118;6.940;2024-01-15T23:46:05;1.66;74.63
33109;HTU21D;19481;51.118;6.940;2024-01-15T23:51:08;1.70;74.38
33109;HTU21D;19481;51.118;6.940;2024-01-15T23:56:11;1.70;74.36
